createdAt,value
2019-03-03T00:00:05.273Z,86.70
2019-03-03T00:01:05.423Z,86.70
2019-03-03T00:02:05.589Z,86.70
2019-03-03T00:03:08.337Z,86.70
2019-03-03T00:04:05.398Z,86.70
2019-03-03T00:05:05.490Z,86.70
2019-03-03T00:06:08.263Z,86.70
2019-03-03T00:07:05.495Z,86.70
2019-03-03T00:08:08.548Z,86.60
2019-03-03T00:09:07.986Z,86.60
2019-03-03T00:10:07.497Z,86.60
2019-03-03T00:11:05.506Z,86.60
2019-03-03T00:12:10.650Z,86.70
2019-03-03T00:13:05.605Z,86.60
2019-03-03T00:14:05.698Z,86.50
2019-03-03T00:15:05.835Z,86.50
2019-03-03T00:16:04.965Z,86.50
2019-03-03T00:17:07.643Z,86.40
2019-03-03T00:18:08.286Z,86.50
2019-03-03T00:19:05.322Z,86.50
2019-03-03T00:20:08.003Z,86.30
2019-03-03T00:21:05.099Z,86.40
2019-03-03T00:22:07.987Z,86.30
2019-03-03T00:23:05.012Z,86.30
2019-03-03T00:24:10.254Z,86.20
2019-03-03T00:25:05.423Z,86.20
2019-03-03T00:26:05.639Z,86.20
2019-03-03T00:27:05.781Z,86.20
2019-03-03T00:28:08.558Z,86.10
2019-03-03T00:29:05.684Z,86.10
2019-03-03T00:30:05.951Z,86.10
2019-03-03T00:31:05.076Z,86.00
2019-03-03T00:32:07.940Z,86.00
2019-03-03T00:33:08.591Z,85.90
2019-03-03T00:34:08.219Z,85.90
2019-03-03T00:35:07.769Z,85.90
2019-03-03T00:36:11.039Z,85.90
2019-03-03T00:37:05.172Z,85.80
2019-03-03T00:38:10.491Z,85.80
2019-03-03T00:39:10.582Z,85.80
2019-03-03T00:40:05.742Z,85.80
2019-03-03T00:41:05.940Z,85.90
2019-03-03T00:42:05.075Z,85.70
2019-03-03T00:43:05.230Z,85.90
2019-03-03T00:44:07.855Z,86.00
2019-03-03T00:45:05.861Z,85.80
2019-03-03T00:46:05.041Z,85.90
2019-03-03T00:47:05.181Z,85.90
2019-03-03T00:48:05.415Z,85.90
2019-03-03T00:49:10.613Z,86.00
2019-03-03T00:50:13.430Z,85.90
2019-03-03T00:51:07.976Z,85.90
2019-03-03T00:52:07.611Z,86.00
2019-03-03T00:53:05.661Z,85.90
2019-03-03T00:54:08.376Z,86.10
2019-03-03T00:55:05.305Z,86.00
2019-03-03T00:56:05.469Z,86.20
2019-03-03T00:57:05.721Z,86.20
2019-03-03T00:58:05.960Z,86.20
2019-03-03T00:59:05.173Z,86.20
2019-03-03T01:00:07.876Z,86.30
2019-03-03T01:01:08.479Z,86.20
2019-03-03T01:02:06.861Z,86.20
2019-03-03T01:03:08.469Z,86.20
2019-03-03T01:04:05.514Z,86.30
2019-03-03T01:05:05.566Z,86.30
2019-03-03T01:06:08.310Z,86.50
2019-03-03T01:07:07.937Z,86.50
2019-03-03T01:08:13.551Z,86.50
2019-03-03T01:09:05.583Z,86.50
2019-03-03T01:10:08.516Z,86.50
2019-03-03T01:11:05.545Z,86.60
2019-03-03T01:12:10.838Z,86.50
2019-03-03T01:13:13.555Z,86.50
2019-03-03T01:14:05.703Z,86.50
2019-03-03T01:15:08.437Z,86.60
2019-03-03T01:16:10.658Z,86.50
2019-03-03T01:17:05.645Z,86.60
2019-03-03T01:18:10.874Z,86.50
2019-03-03T01:19:08.530Z,86.60
2019-03-03T01:20:05.504Z,86.60
2019-03-03T01:21:08.263Z,86.60
2019-03-03T01:22:07.939Z,86.60
2019-03-03T01:23:10.602Z,86.60
2019-03-03T01:24:08.124Z,86.60
2019-03-03T01:25:07.691Z,86.60
2019-03-03T01:26:12.042Z,86.60
2019-03-03T01:27:05.039Z,86.60
2019-03-03T01:28:05.140Z,86.60
2019-03-03T01:29:06.632Z,86.60
2019-03-03T01:30:05.700Z,86.60
2019-03-03T01:31:08.524Z,86.60
2019-03-03T01:32:05.560Z,86.60
2019-03-03T01:33:05.726Z,86.60
2019-03-03T01:34:05.956Z,86.60
2019-03-03T01:35:05.035Z,86.60
2019-03-03T01:36:05.110Z,86.50
2019-03-03T01:37:07.833Z,86.50
2019-03-03T01:38:08.301Z,86.50
2019-03-03T01:39:05.291Z,86.40
2019-03-03T01:40:07.852Z,86.40
2019-03-03T01:41:06.740Z,86.40
2019-03-03T01:42:05.864Z,86.40
2019-03-03T01:43:04.989Z,86.20
2019-03-03T01:44:07.701Z,86.20
2019-03-03T01:45:08.264Z,86.20
2019-03-03T01:46:05.332Z,86.20
2019-03-03T01:47:08.031Z,86.20
2019-03-03T01:48:05.078Z,86.20
2019-03-03T01:49:05.175Z,86.20
2019-03-03T01:50:07.884Z,86.20
2019-03-03T01:51:06.065Z,86.20
2019-03-03T01:52:07.870Z,86.20
2019-03-03T01:53:05.858Z,86.20
2019-03-03T01:54:05.037Z,86.20
2019-03-03T01:55:05.249Z,86.20
2019-03-03T01:56:05.461Z,86.30
2019-03-03T01:57:05.620Z,86.30
2019-03-03T01:58:08.370Z,86.40
2019-03-03T01:59:05.562Z,86.40
2019-03-03T02:00:05.861Z,86.40
2019-03-03T02:01:04.999Z,86.40
2019-03-03T02:02:05.152Z,86.40
2019-03-03T02:03:07.780Z,86.40
2019-03-03T02:04:08.311Z,86.30
2019-03-03T02:05:05.253Z,86.40
2019-03-03T02:06:05.321Z,86.30
2019-03-03T02:07:07.926Z,86.30
2019-03-03T02:08:08.492Z,86.30
2019-03-03T02:09:05.677Z,86.30
2019-03-03T02:10:13.459Z,86.30
2019-03-03T02:11:08.044Z,86.20
2019-03-03T02:12:07.676Z,86.10
2019-03-03T02:13:05.728Z,86.10
2019-03-03T02:14:08.387Z,86.20
2019-03-03T02:15:05.347Z,86.10
2019-03-03T02:16:08.111Z,86.10
2019-03-03T02:17:05.215Z,86.20
2019-03-03T02:18:05.364Z,86.20
2019-03-03T02:19:05.494Z,86.10
2019-03-03T02:20:05.671Z,86.10
2019-03-03T02:21:08.389Z,86.10
2019-03-03T02:22:07.894Z,86.00
2019-03-03T02:23:05.951Z,86.00
2019-03-03T02:24:05.059Z,86.00
2019-03-03T02:25:05.800Z,86.00
2019-03-03T02:26:08.552Z,86.00
2019-03-03T02:27:10.660Z,85.90
2019-03-03T02:28:05.654Z,85.90
2019-03-03T02:29:05.827Z,85.80
2019-03-03T02:30:05.954Z,85.80
2019-03-03T02:31:07.661Z,85.70
2019-03-03T02:32:05.749Z,85.80
2019-03-03T02:33:08.600Z,85.60
2019-03-03T02:34:05.579Z,85.60
2019-03-03T02:35:08.246Z,85.60
2019-03-03T02:36:05.410Z,85.60
2019-03-03T02:37:05.483Z,85.60
2019-03-03T02:38:05.621Z,85.60
2019-03-03T02:39:05.024Z,85.50
2019-03-03T02:40:07.717Z,85.50
2019-03-03T02:41:05.825Z,85.60
2019-03-03T02:42:07.573Z,85.50
2019-03-03T02:43:05.658Z,85.40
2019-03-03T02:44:05.806Z,85.40
2019-03-03T02:45:08.592Z,85.40
2019-03-03T02:46:08.226Z,85.40
2019-03-03T02:47:07.890Z,85.40
2019-03-03T02:48:08.463Z,85.40
2019-03-03T02:49:08.080Z,85.50
2019-03-03T02:50:05.285Z,85.50
2019-03-03T02:51:05.472Z,85.50
2019-03-03T02:52:05.814Z,85.40
2019-03-03T02:53:05.050Z,85.50
2019-03-03T02:54:07.843Z,85.40
2019-03-03T02:55:05.853Z,85.50
2019-03-03T02:56:06.027Z,85.30
2019-03-03T02:57:05.133Z,85.30
2019-03-03T02:58:07.748Z,85.20
2019-03-03T02:59:08.268Z,85.10
2019-03-03T03:00:07.742Z,85.10
2019-03-03T03:01:05.905Z,85.10
2019-03-03T03:02:05.213Z,85.20
2019-03-03T03:03:05.388Z,85.00
2019-03-03T03:04:05.564Z,84.90
2019-03-03T03:05:05.702Z,84.90
2019-03-03T03:06:05.907Z,84.80
2019-03-03T03:07:05.097Z,84.80
2019-03-03T03:08:05.256Z,84.70
2019-03-03T03:09:05.435Z,84.60
2019-03-03T03:10:08.127Z,84.50
2019-03-03T03:11:05.134Z,84.50
2019-03-03T03:12:07.803Z,84.30
2019-03-03T03:13:05.804Z,84.30
2019-03-03T03:14:11.085Z,84.10
2019-03-03T03:15:05.159Z,84.10
2019-03-03T03:16:05.407Z,84.00
2019-03-03T03:17:08.248Z,83.80
2019-03-03T03:18:05.404Z,83.80
2019-03-03T03:19:05.807Z,83.60
2019-03-03T03:20:04.967Z,83.40
2019-03-03T03:21:05.164Z,83.30
2019-03-03T03:22:05.759Z,83.30
2019-03-03T03:23:08.442Z,83.20
2019-03-03T03:24:05.474Z,83.20
2019-03-03T03:25:08.201Z,83.00
2019-03-03T03:26:05.386Z,83.00
2019-03-03T03:27:07.643Z,82.90
2019-03-03T03:28:08.470Z,82.30
2019-03-03T03:29:05.489Z,82.30
2019-03-03T03:30:08.300Z,81.90
2019-03-03T03:31:05.516Z,82.00
2019-03-03T03:32:05.722Z,81.90
2019-03-03T03:33:08.511Z,81.50
2019-03-03T03:34:05.534Z,81.50
2019-03-03T03:35:05.747Z,81.40
2019-03-03T03:36:08.428Z,81.20
2019-03-03T03:37:05.440Z,81.20
2019-03-03T03:38:08.339Z,80.90
2019-03-03T03:39:05.391Z,80.90
2019-03-03T03:40:05.513Z,80.40
2019-03-03T03:41:08.189Z,80.20
2019-03-03T03:42:05.197Z,80.20
2019-03-03T03:43:10.505Z,80.10
2019-03-03T03:44:10.607Z,80.00
2019-03-03T03:45:05.759Z,80.00
2019-03-03T03:46:05.742Z,80.10
2019-03-03T03:47:05.424Z,80.10
2019-03-03T03:48:05.646Z,80.10
2019-03-03T03:49:08.317Z,79.80
2019-03-03T03:50:07.943Z,79.50
2019-03-03T03:51:06.064Z,79.50
2019-03-03T03:52:07.730Z,79.10
2019-03-03T03:53:08.168Z,79.10
2019-03-03T03:54:10.363Z,79.20
2019-03-03T03:55:05.349Z,79.10
2019-03-03T03:56:10.713Z,79.20
2019-03-03T03:57:05.854Z,79.20
2019-03-03T03:58:05.480Z,79.00
2019-03-03T03:59:08.233Z,78.90
2019-03-03T04:00:05.233Z,78.90
2019-03-03T04:01:05.738Z,79.00
2019-03-03T04:02:08.527Z,78.70
2019-03-03T04:03:05.544Z,78.70
2019-03-03T04:04:10.259Z,78.70
2019-03-03T04:05:07.796Z,78.60
2019-03-03T04:06:05.833Z,78.60
2019-03-03T04:07:05.338Z,78.50
2019-03-03T04:08:05.602Z,78.60
2019-03-03T04:09:08.340Z,78.50
2019-03-03T04:10:05.322Z,78.50
2019-03-03T04:11:05.485Z,78.60
2019-03-03T04:12:08.222Z,78.50
2019-03-03T04:13:05.359Z,78.50
2019-03-03T04:14:05.571Z,78.40
2019-03-03T04:15:10.824Z,78.40
2019-03-03T04:16:05.991Z,78.40
2019-03-03T04:17:05.154Z,78.30
2019-03-03T04:18:05.231Z,78.30
2019-03-03T04:19:05.414Z,78.20
2019-03-03T04:20:05.503Z,78.30
2019-03-03T04:21:08.270Z,78.40
2019-03-03T04:22:05.291Z,78.40
2019-03-03T04:23:05.478Z,78.30
2019-03-03T04:24:05.623Z,78.30
2019-03-03T04:25:05.900Z,78.30
2019-03-03T04:26:05.070Z,78.50
2019-03-03T04:27:05.264Z,78.40
2019-03-03T04:28:08.117Z,78.30
2019-03-03T04:29:05.203Z,78.30
2019-03-03T04:30:05.637Z,78.20
2019-03-03T04:31:16.008Z,78.30
2019-03-03T04:32:05.137Z,78.30
2019-03-03T04:33:05.281Z,78.40
2019-03-03T04:34:05.368Z,78.50
2019-03-03T04:35:05.775Z,78.40
2019-03-03T04:36:08.465Z,78.30
2019-03-03T04:37:07.971Z,78.30
2019-03-03T04:38:05.902Z,78.30
2019-03-03T04:39:07.561Z,78.30
2019-03-03T04:40:08.047Z,78.30
2019-03-03T04:41:05.026Z,78.30
2019-03-03T04:42:05.128Z,78.30
2019-03-03T04:43:05.327Z,78.30
2019-03-03T04:44:08.019Z,78.30
2019-03-03T04:45:05.097Z,78.30
2019-03-03T04:46:05.273Z,78.30
2019-03-03T04:47:05.446Z,78.50
2019-03-03T04:48:05.678Z,78.40
2019-03-03T04:49:06.058Z,78.50
2019-03-03T04:50:05.386Z,78.50
2019-03-03T04:51:08.111Z,78.70
2019-03-03T04:52:05.142Z,78.70
2019-03-03T04:53:07.808Z,78.70
2019-03-03T04:54:05.876Z,78.70
2019-03-03T04:55:05.178Z,78.70
2019-03-03T04:56:05.544Z,78.60
2019-03-03T04:57:05.845Z,78.70
2019-03-03T04:58:05.001Z,78.60
2019-03-03T04:59:07.657Z,78.70
2019-03-03T05:00:08.215Z,78.70
2019-03-03T05:01:07.788Z,78.70
2019-03-03T05:02:05.801Z,78.70
2019-03-03T05:03:05.936Z,78.80
2019-03-03T05:04:05.144Z,78.70
2019-03-03T05:05:07.782Z,78.60
2019-03-03T05:06:08.355Z,78.60
2019-03-03T05:07:05.418Z,78.60
2019-03-03T05:08:05.580Z,78.70
2019-03-03T05:09:08.253Z,78.70
2019-03-03T05:10:07.894Z,78.80
2019-03-03T05:11:08.378Z,78.80
2019-03-03T05:12:08.011Z,78.80
2019-03-03T05:13:04.958Z,78.90
2019-03-03T05:14:05.086Z,78.80
2019-03-03T05:15:05.221Z,78.80
2019-03-03T05:16:05.469Z,78.90
2019-03-03T05:17:09.174Z,78.80
2019-03-03T05:18:05.204Z,78.80
2019-03-03T05:19:05.279Z,78.80
2019-03-03T05:20:05.449Z,78.90
2019-03-03T05:21:05.604Z,79.00
2019-03-03T05:22:05.765Z,78.90
2019-03-03T05:23:10.971Z,78.90
2019-03-03T05:24:07.498Z,78.90
2019-03-03T05:25:08.347Z,78.90
2019-03-03T05:26:05.519Z,79.00
2019-03-03T05:27:05.874Z,79.00
2019-03-03T05:28:05.034Z,78.90
2019-03-03T05:29:05.124Z,79.00
2019-03-03T05:30:08.182Z,79.00
2019-03-03T05:31:07.685Z,79.10
2019-03-03T05:32:08.300Z,79.20
2019-03-03T05:33:05.359Z,79.20
2019-03-03T05:34:05.522Z,79.10
2019-03-03T05:35:05.710Z,79.20
2019-03-03T05:36:05.821Z,79.20
2019-03-03T05:37:08.577Z,79.30
2019-03-03T05:38:05.636Z,79.30
2019-03-03T05:39:05.775Z,79.40
2019-03-03T05:40:05.916Z,79.40
2019-03-03T05:41:04.993Z,79.50
2019-03-03T05:42:05.392Z,79.50
2019-03-03T05:43:05.903Z,79.50
2019-03-03T05:44:05.008Z,79.60
2019-03-03T05:45:05.282Z,79.50
2019-03-03T05:46:05.404Z,79.60
2019-03-03T05:47:16.245Z,79.70
2019-03-03T05:48:05.630Z,79.70
2019-03-03T05:49:05.823Z,79.70
2019-03-03T05:50:05.096Z,79.70
2019-03-03T05:51:05.310Z,79.80
2019-03-03T05:52:05.542Z,79.90
2019-03-03T05:53:05.932Z,79.90
2019-03-03T05:54:10.133Z,79.90
2019-03-03T05:55:05.354Z,79.90
2019-03-03T05:56:08.177Z,79.90
2019-03-03T05:57:07.924Z,79.90
2019-03-03T05:58:08.522Z,79.90
2019-03-03T05:59:05.484Z,79.90
2019-03-03T06:00:05.662Z,79.90
2019-03-03T06:01:05.863Z,79.90
2019-03-03T06:02:10.039Z,79.90
2019-03-03T06:03:05.085Z,80.00
2019-03-03T06:04:05.322Z,79.90
2019-03-03T06:05:10.538Z,79.90
2019-03-03T06:06:05.523Z,79.90
2019-03-03T06:07:05.571Z,79.90
2019-03-03T06:08:08.327Z,80.00
2019-03-03T06:09:05.670Z,80.00
2019-03-03T06:10:05.830Z,79.90
2019-03-03T06:11:04.984Z,80.00
2019-03-03T06:12:05.275Z,79.90
2019-03-03T06:13:05.503Z,80.00
2019-03-03T06:14:05.630Z,80.10
2019-03-03T06:15:08.356Z,80.20
2019-03-03T06:16:07.985Z,80.20
2019-03-03T06:17:07.594Z,80.20
2019-03-03T06:18:08.169Z,80.20
2019-03-03T06:19:05.158Z,80.30
2019-03-03T06:20:05.325Z,80.30
2019-03-03T06:21:08.093Z,80.30
2019-03-03T06:22:05.079Z,80.30
2019-03-03T06:23:07.767Z,80.30
2019-03-03T06:24:05.942Z,80.30
2019-03-03T06:25:05.149Z,80.20
2019-03-03T06:26:05.384Z,80.30
2019-03-03T06:27:08.052Z,80.30
2019-03-03T06:28:05.087Z,80.30
2019-03-03T06:29:05.254Z,80.30
2019-03-03T06:30:05.892Z,80.40
2019-03-03T06:31:05.092Z,80.50
2019-03-03T06:32:07.774Z,80.50
2019-03-03T06:33:05.710Z,80.50
2019-03-03T06:34:08.395Z,80.50
2019-03-03T06:35:07.928Z,80.50
2019-03-03T06:36:08.488Z,80.50
2019-03-03T06:37:05.556Z,80.50
2019-03-03T06:38:05.713Z,80.50
2019-03-03T06:39:08.491Z,80.50
2019-03-03T06:40:05.753Z,80.50
2019-03-03T06:41:08.479Z,80.60
2019-03-03T06:42:08.182Z,80.50
2019-03-03T06:43:10.261Z,80.70
2019-03-03T06:44:05.434Z,80.60
2019-03-03T06:45:05.041Z,80.90
2019-03-03T06:46:07.692Z,80.70
2019-03-03T06:47:08.279Z,80.90
2019-03-03T06:48:05.325Z,80.90
2019-03-03T06:49:05.477Z,80.90
2019-03-03T06:50:05.620Z,80.90
2019-03-03T06:51:05.742Z,80.90
2019-03-03T06:52:05.877Z,80.80
2019-03-03T06:53:05.138Z,80.80
2019-03-03T06:54:08.001Z,80.70
2019-03-03T06:55:05.002Z,80.70
2019-03-03T06:56:07.775Z,80.80
2019-03-03T06:57:08.697Z,80.70
2019-03-03T06:58:05.786Z,80.80
2019-03-03T06:59:08.915Z,80.70
2019-03-03T07:00:10.610Z,80.70
2019-03-03T07:01:05.716Z,80.70
2019-03-03T07:02:05.847Z,80.80
2019-03-03T07:03:07.527Z,80.80
2019-03-03T07:04:08.101Z,80.90
2019-03-03T07:05:07.694Z,80.90
2019-03-03T07:06:05.628Z,80.90
2019-03-03T07:07:05.874Z,80.90
2019-03-03T07:08:07.573Z,80.90
2019-03-03T07:09:06.719Z,80.90
2019-03-03T07:10:05.913Z,80.90
2019-03-03T07:11:05.685Z,80.90
2019-03-03T07:12:06.256Z,80.90
2019-03-03T07:13:05.565Z,80.80
2019-03-03T07:14:05.732Z,80.70
2019-03-03T07:15:08.626Z,80.60
2019-03-03T07:16:05.818Z,80.60
2019-03-03T07:17:07.510Z,80.60
2019-03-03T07:18:05.479Z,80.60
2019-03-03T07:19:08.251Z,80.50
2019-03-03T07:20:07.895Z,80.30
2019-03-03T07:21:05.988Z,80.40
2019-03-03T07:22:06.495Z,80.30
2019-03-03T07:23:08.396Z,80.40
2019-03-03T07:24:08.055Z,80.40
2019-03-03T07:25:05.073Z,80.30
2019-03-03T07:26:07.731Z,80.30
2019-03-03T07:27:05.806Z,80.30
2019-03-03T07:28:08.573Z,80.20
2019-03-03T07:29:05.859Z,80.30
2019-03-03T07:30:07.623Z,79.90
2019-03-03T07:31:10.659Z,79.90
2019-03-03T07:32:10.666Z,79.70
2019-03-03T07:33:08.174Z,79.50
2019-03-03T07:34:07.787Z,79.40
2019-03-03T07:35:06.079Z,79.40
2019-03-03T07:36:07.897Z,79.30
2019-03-03T07:37:06.360Z,79.30
2019-03-03T07:38:05.500Z,79.30
2019-03-03T07:39:08.284Z,79.40
2019-03-03T07:40:05.393Z,79.40
2019-03-03T07:41:10.747Z,79.20
2019-03-03T07:42:05.792Z,79.20
2019-03-03T07:43:06.370Z,79.20
2019-03-03T07:44:05.723Z,79.30
2019-03-03T07:45:06.076Z,79.30
2019-03-03T07:46:10.568Z,79.30
2019-03-03T07:47:05.922Z,79.30
2019-03-03T07:48:05.720Z,79.30
2019-03-03T07:49:05.873Z,79.30
2019-03-03T07:50:04.973Z,79.20
2019-03-03T07:51:05.081Z,79.30
2019-03-03T07:52:05.440Z,79.20
2019-03-03T07:53:05.779Z,79.10
2019-03-03T07:54:05.953Z,79.00
2019-03-03T07:55:05.226Z,79.00
2019-03-03T07:56:05.514Z,79.00
2019-03-03T07:57:10.748Z,79.10
2019-03-03T07:58:05.817Z,79.10
2019-03-03T07:59:06.071Z,79.10
2019-03-03T08:00:05.327Z,79.20
2019-03-03T08:01:08.200Z,79.00
2019-03-03T08:02:05.210Z,79.00
2019-03-03T08:03:05.771Z,79.00
2019-03-03T08:04:04.931Z,78.80
2019-03-03T08:05:05.170Z,78.80
2019-03-03T08:06:05.370Z,78.80
2019-03-03T08:07:10.723Z,78.80
2019-03-03T08:08:08.278Z,78.70
2019-03-03T08:09:05.289Z,78.70
2019-03-03T08:10:05.454Z,78.70
2019-03-03T08:11:08.137Z,78.60
2019-03-03T08:12:05.111Z,78.60
2019-03-03T08:13:09.859Z,78.70
2019-03-03T08:14:05.070Z,78.60
2019-03-03T08:15:05.149Z,78.60
2019-03-03T08:16:07.838Z,78.60
2019-03-03T08:17:05.960Z,78.70
2019-03-03T08:18:05.148Z,78.50
2019-03-03T08:19:07.766Z,78.30
2019-03-03T08:20:08.428Z,78.40
2019-03-03T08:21:05.470Z,78.40
2019-03-03T08:22:08.330Z,78.60
2019-03-03T08:23:07.997Z,78.70
2019-03-03T08:24:07.582Z,78.80
2019-03-03T08:25:08.406Z,78.70
2019-03-03T08:26:07.508Z,78.70
2019-03-03T08:27:05.860Z,78.60
2019-03-03T08:28:05.038Z,78.40
2019-03-03T08:29:05.235Z,78.30
2019-03-03T08:30:05.797Z,78.30
2019-03-03T08:31:07.797Z,78.30
2019-03-03T08:32:05.857Z,78.30
2019-03-03T08:33:05.125Z,78.30
2019-03-03T08:34:08.138Z,78.30
2019-03-03T08:35:07.882Z,78.30
2019-03-03T08:36:05.981Z,78.30
2019-03-03T08:37:05.305Z,78.30
2019-03-03T08:38:05.491Z,78.30
2019-03-03T08:39:08.217Z,78.10
2019-03-03T08:40:05.297Z,78.10
2019-03-03T08:41:05.622Z,78.20
2019-03-03T08:42:08.273Z,78.20
2019-03-03T08:43:05.309Z,78.20
2019-03-03T08:44:05.890Z,78.00
2019-03-03T08:45:05.189Z,77.90
2019-03-03T08:46:05.332Z,78.00
2019-03-03T08:47:10.561Z,78.00
2019-03-03T08:48:08.066Z,77.90
2019-03-03T08:49:07.722Z,77.80
2019-03-03T08:50:08.254Z,77.90
2019-03-03T08:51:05.231Z,77.90
2019-03-03T08:52:05.580Z,77.70
2019-03-03T08:53:10.843Z,77.50
2019-03-03T08:54:08.440Z,77.30
2019-03-03T08:55:08.131Z,77.30
2019-03-03T08:56:05.215Z,77.30
2019-03-03T08:57:05.337Z,77.40
2019-03-03T08:58:08.142Z,77.20
2019-03-03T08:59:07.903Z,77.00
2019-03-03T09:00:05.931Z,77.00
2019-03-03T09:01:10.284Z,76.90
2019-03-03T09:02:05.408Z,76.90
2019-03-03T09:03:05.493Z,77.00
2019-03-03T09:04:05.684Z,77.10
2019-03-03T09:05:05.809Z,76.90
2019-03-03T09:06:08.490Z,76.40
2019-03-03T09:07:10.512Z,76.40
2019-03-03T09:08:07.577Z,76.30
2019-03-03T09:09:05.449Z,76.20
2019-03-03T09:10:07.984Z,76.20
2019-03-03T09:11:05.916Z,76.20
2019-03-03T09:12:05.009Z,76.40
2019-03-03T09:13:07.663Z,76.00
2019-03-03T09:14:05.549Z,76.00
2019-03-03T09:15:05.548Z,75.70
2019-03-03T09:16:08.171Z,75.70
2019-03-03T09:17:07.600Z,75.70
2019-03-03T09:18:05.647Z,75.80
2019-03-03T09:19:08.435Z,75.60
2019-03-03T09:20:05.477Z,75.60
2019-03-03T09:21:05.531Z,75.60
2019-03-03T09:22:05.598Z,75.70
2019-03-03T09:23:09.346Z,75.80
2019-03-03T09:24:05.251Z,75.80
2019-03-03T09:25:07.858Z,75.90
2019-03-03T09:26:05.781Z,76.00
2019-03-03T09:27:05.973Z,75.80
2019-03-03T09:28:05.109Z,75.80
2019-03-03T09:29:05.434Z,75.80
2019-03-03T09:30:05.686Z,76.00
2019-03-03T09:31:05.785Z,75.80
2019-03-03T09:32:06.020Z,75.80
2019-03-03T09:33:05.154Z,75.60
2019-03-03T09:34:05.191Z,75.60
2019-03-03T09:35:05.168Z,75.50
2019-03-03T09:36:07.813Z,75.60
2019-03-03T09:37:05.731Z,75.60
2019-03-03T09:38:08.239Z,75.30
2019-03-03T09:39:05.950Z,75.30
2019-03-03T09:40:09.957Z,75.20
2019-03-03T09:41:07.707Z,75.10
2019-03-03T09:42:05.674Z,75.10
2019-03-03T09:43:05.783Z,75.30
2019-03-03T09:44:10.421Z,75.30
2019-03-03T09:45:08.000Z,75.40
2019-03-03T09:46:04.965Z,75.40
2019-03-03T09:47:05.076Z,75.70
2019-03-03T09:48:05.221Z,75.50
2019-03-03T09:49:06.273Z,75.50
2019-03-03T09:50:05.168Z,75.50
2019-03-03T09:51:05.234Z,75.60
2019-03-03T09:52:07.881Z,75.50
2019-03-03T09:53:05.812Z,75.50
2019-03-03T09:54:05.868Z,75.40
2019-03-03T09:55:05.043Z,75.40
2019-03-03T09:56:05.150Z,75.40
2019-03-03T09:57:07.879Z,75.40
2019-03-03T09:58:08.435Z,75.00
2019-03-03T09:59:05.468Z,75.00
2019-03-03T10:00:05.718Z,74.90
2019-03-03T10:01:08.423Z,75.30
2019-03-03T10:02:07.871Z,75.30
2019-03-03T10:03:05.807Z,75.30
2019-03-03T10:04:05.851Z,75.30
2019-03-03T10:05:04.891Z,75.40
2019-03-03T10:06:04.970Z,75.40
2019-03-03T10:07:05.315Z,75.40
2019-03-03T10:08:05.048Z,75.70
2019-03-03T10:09:07.620Z,75.20
2019-03-03T10:10:08.062Z,75.00
2019-03-03T10:11:05.036Z,75.00
2019-03-03T10:12:05.115Z,74.90
2019-03-03T10:13:07.685Z,75.10
2019-03-03T10:14:10.785Z,75.10
2019-03-03T10:15:05.705Z,75.10
2019-03-03T10:16:06.558Z,75.00
2019-03-03T10:17:05.616Z,74.80
2019-03-03T10:18:05.663Z,74.90
2019-03-03T10:19:07.723Z,74.90
2019-03-03T10:20:08.357Z,74.80
2019-03-03T10:21:05.323Z,74.80
2019-03-03T10:22:05.428Z,74.70
2019-03-03T10:23:05.471Z,74.60
2019-03-03T10:24:05.487Z,74.70
2019-03-03T10:25:05.825Z,74.70
2019-03-03T10:26:05.866Z,74.50
2019-03-03T10:27:08.497Z,74.10
2019-03-03T10:28:07.919Z,74.20
2019-03-03T10:29:05.856Z,74.20
2019-03-03T10:30:05.167Z,74.00
2019-03-03T10:31:07.779Z,73.50
2019-03-03T10:32:05.755Z,73.50
2019-03-03T10:33:05.822Z,73.80
2019-03-03T10:34:05.803Z,74.00
2019-03-03T10:35:06.001Z,74.00
2019-03-03T10:36:05.150Z,73.90
2019-03-03T10:37:07.704Z,74.10
2019-03-03T10:38:08.105Z,74.00
2019-03-03T10:39:04.966Z,74.00
2019-03-03T10:40:04.966Z,73.80
2019-03-03T10:41:04.985Z,73.80
2019-03-03T10:42:04.965Z,73.90
2019-03-03T10:43:04.944Z,74.20
2019-03-03T10:44:04.909Z,74.20
2019-03-03T10:45:04.938Z,74.30
2019-03-03T10:46:04.919Z,74.40
2019-03-03T10:47:04.928Z,74.40
2019-03-03T10:48:07.586Z,74.70
2019-03-03T10:49:05.433Z,74.70
2019-03-03T10:50:08.109Z,74.80
2019-03-03T10:51:04.998Z,74.80
2019-03-03T10:52:05.089Z,74.80
2019-03-03T10:53:05.142Z,74.70
2019-03-03T10:54:05.364Z,74.80
2019-03-03T10:55:05.410Z,74.90
2019-03-03T10:56:08.121Z,75.00
2019-03-03T10:57:07.665Z,75.10
2019-03-03T10:58:08.162Z,74.90
2019-03-03T10:59:05.163Z,74.90
2019-03-03T11:00:07.893Z,74.60
2019-03-03T11:01:05.823Z,74.60
2019-03-03T11:02:04.923Z,74.50
2019-03-03T11:03:04.999Z,74.40
2019-03-03T11:04:05.144Z,74.20
2019-03-03T11:05:05.356Z,74.20
2019-03-03T11:06:08.039Z,74.40
2019-03-03T11:07:04.897Z,74.40
2019-03-03T11:08:05.069Z,74.40
2019-03-03T11:09:05.114Z,74.40
2019-03-03T11:10:07.719Z,74.40
2019-03-03T11:11:05.646Z,74.40
2019-03-03T11:12:05.668Z,74.20
2019-03-03T11:13:05.730Z,74.00
2019-03-03T11:14:05.973Z,74.00
2019-03-03T11:15:07.681Z,74.10
2019-03-03T11:16:05.567Z,74.10
2019-03-03T11:17:08.247Z,74.30
2019-03-03T11:18:05.321Z,74.40
2019-03-03T11:19:08.047Z,74.20
2019-03-03T11:20:07.540Z,74.30
2019-03-03T11:21:07.938Z,74.50
2019-03-03T11:22:05.872Z,74.50
2019-03-03T11:23:08.439Z,74.00
2019-03-03T11:24:07.804Z,74.10
2019-03-03T11:25:05.728Z,74.10
2019-03-03T11:26:08.240Z,74.20
2019-03-03T11:27:10.282Z,74.20
2019-03-03T11:28:05.243Z,74.20
2019-03-03T11:29:05.246Z,74.40
2019-03-03T11:30:05.573Z,74.40
2019-03-03T11:31:05.565Z,74.30
2019-03-03T11:32:08.115Z,74.00
2019-03-03T11:33:07.909Z,73.70
2019-03-03T11:34:05.894Z,73.70
2019-03-03T11:35:07.566Z,73.30
2019-03-03T11:36:05.578Z,73.40
2019-03-03T11:37:05.779Z,72.80
2019-03-03T11:38:08.419Z,72.80
2019-03-03T11:39:05.301Z,72.80
2019-03-03T11:40:05.403Z,73.00
2019-03-03T11:41:08.067Z,73.00
2019-03-03T11:42:04.971Z,72.90
2019-03-03T11:43:05.015Z,73.00
2019-03-03T11:44:05.093Z,72.60
2019-03-03T11:45:05.125Z,72.60
2019-03-03T11:46:10.252Z,72.30
2019-03-03T11:47:05.218Z,72.30
2019-03-03T11:48:05.293Z,72.20
2019-03-03T11:49:05.478Z,72.00
2019-03-03T11:50:08.219Z,71.70
2019-03-03T11:51:07.782Z,71.70
2019-03-03T11:52:05.737Z,71.70
2019-03-03T11:53:05.780Z,71.70
2019-03-03T11:54:08.391Z,71.70
2019-03-03T11:55:07.831Z,71.50
2019-03-03T11:56:05.784Z,71.50
2019-03-03T11:57:08.458Z,71.50
2019-03-03T11:58:05.479Z,71.50
2019-03-03T11:59:05.536Z,71.50
2019-03-03T12:00:05.561Z,71.30
2019-03-03T12:01:05.727Z,71.40
2019-03-03T12:02:04.938Z,71.50
2019-03-03T12:03:05.041Z,71.30
2019-03-03T12:04:05.109Z,71.30
2019-03-03T12:05:05.129Z,71.30
2019-03-03T12:06:07.758Z,71.60
2019-03-03T12:07:05.705Z,71.60
2019-03-03T12:08:05.755Z,71.90
2019-03-03T12:09:05.767Z,72.00
2019-03-03T12:10:08.370Z,71.40
2019-03-03T12:11:07.828Z,71.30
2019-03-03T12:12:05.785Z,71.30
2019-03-03T12:13:08.417Z,71.30
2019-03-03T12:14:05.519Z,71.30
2019-03-03T12:15:05.709Z,71.30
2019-03-03T12:16:08.412Z,71.30
2019-03-03T12:17:05.451Z,71.30
2019-03-03T12:18:08.145Z,71.00
2019-03-03T12:19:05.052Z,71.00
2019-03-03T12:20:07.731Z,70.90
2019-03-03T12:21:05.733Z,70.90
2019-03-03T12:22:05.693Z,70.60
2019-03-03T12:23:05.800Z,70.80
2019-03-03T12:24:05.804Z,70.90
2019-03-03T12:25:08.475Z,70.80
2019-03-03T12:26:05.423Z,70.60
2019-03-03T12:27:08.327Z,70.60
2019-03-03T12:28:05.165Z,70.60
2019-03-03T12:29:05.130Z,70.60
2019-03-03T12:30:05.768Z,70.60
2019-03-03T12:31:05.975Z,70.50
2019-03-03T12:32:07.527Z,70.20
2019-03-03T12:33:05.440Z,70.30
2019-03-03T12:34:05.209Z,70.30
2019-03-03T12:35:05.226Z,70.40
2019-03-03T12:36:05.467Z,70.30
2019-03-03T12:37:05.563Z,70.20
2019-03-03T12:38:10.702Z,70.40
2019-03-03T12:39:07.624Z,70.50
2019-03-03T12:40:05.490Z,70.50
2019-03-03T12:41:07.995Z,70.60
2019-03-03T12:42:08.452Z,70.60
2019-03-03T12:43:05.334Z,70.60
2019-03-03T12:44:05.377Z,70.40
2019-03-03T12:45:07.955Z,70.50
2019-03-03T12:46:05.864Z,70.50
2019-03-03T12:47:04.921Z,70.70
2019-03-03T12:48:10.031Z,70.80
2019-03-03T12:49:04.903Z,70.80
2019-03-03T12:50:07.426Z,70.60
2019-03-03T12:51:07.916Z,70.60
2019-03-03T12:52:05.774Z,70.60